Time;durP1;ratioP1;P1;durP2;ratioP2;P2;SDS_P1;SDS_P2;PMS_P1;PMS_P2;Temp;Humidity;BMP_temperature;BMP_pressure;BME280_temperature;BME280_humidity;BME280_pressure;Samples;Min_cycle;Max_cycle;Signal;HPM_P1;HPM_P2
2023/04/26 00:02:11;;;;;;;12.80;8.60;;;14.10;59.80;;;;;;4945593;29;20271;-60
2023/04/26 00:04:37;;;;;;;10.57;8.13;;;14.10;59.80;;;;;;4934571;29;20476;-59
2023/04/26 00:07:03;;;;;;;13.77;8.40;;;14.00;59.70;;;;;;4943949;28;20440;-59
2023/04/26 00:09:29;;;;;;;13.40;8.37;;;14.10;59.70;;;;;;4954414;28;20490;-58
2023/04/26 00:11:55;;;;;;;11.10;9.23;;;14.10;59.80;;;;;;4954399;28;20195;-58
2023/04/26 00:14:21;;;;;;;10.97;7.73;;;14.00;59.70;;;;;;4949840;28;20436;-58
2023/04/26 00:16:47;;;;;;;13.93;8.50;;;14.00;58.90;;;;;;4953515;28;20610;-58
2023/04/26 00:19:13;;;;;;;8.90;8.00;;;14.00;58.40;;;;;;4954156;29;20192;-57
2023/04/26 00:21:39;;;;;;;8.20;7.40;;;13.90;58.00;;;;;;4954143;28;20435;-59
2023/04/26 00:24:05;;;;;;;10.90;7.20;;;14.00;57.80;;;;;;4954088;28;20196;-56
2023/04/26 00:26:33;;;;;;;9.43;7.67;;;14.00;57.70;;;;;;4952190;29;20417;-56
2023/04/26 00:28:58;;;;;;;9.90;7.77;;;14.00;57.70;;;;;;4945061;28;20451;-56
2023/04/26 00:31:24;;;;;;;10.00;7.50;;;14.00;57.80;;;;;;4949548;28;20897;-57
2023/04/26 00:33:50;;;;;;;9.33;8.17;;;14.00;57.90;;;;;;4948864;28;20224;-56
2023/04/26 00:36:18;;;;;;;14.20;8.20;;;14.00;57.90;;;;;;4949010;29;20235;-56
2023/04/26 00:38:44;;;;;;;10.97;8.60;;;14.00;58.00;;;;;;4946290;28;20455;-57
2023/04/26 00:41:10;;;;;;;12.53;8.70;;;14.00;58.20;;;;;;4945180;28;20543;-57
2023/04/26 00:43:36;;;;;;;10.90;8.70;;;14.00;58.30;;;;;;4943558;29;20542;-56
2023/04/26 00:46:02;;;;;;;13.70;8.93;;;14.00;58.50;;;;;;4948263;29;20203;-56
2023/04/26 00:48:27;;;;;;;10.47;7.33;;;14.00;58.40;;;;;;4948672;29;20663;-55
2023/04/26 00:50:54;;;;;;;9.47;7.50;;;13.90;57.90;;;;;;4952606;28;20573;-57
2023/04/26 00:53:20;;;;;;;11.00;7.00;;;13.90;58.00;;;;;;4949791;28;20206;-56
2023/04/26 00:55:46;;;;;;;11.80;7.70;;;13.80;57.10;;;;;;4947155;29;20448;-56
2023/04/26 00:58:12;;;;;;;8.40;6.83;;;13.80;56.90;;;;;;4952288;28;20564;-56
2023/04/26 01:00:37;;;;;;;9.80;7.10;;;13.80;57.00;;;;;;4939948;28;20264;-56
2023/04/26 01:03:03;;;;;;;9.30;7.67;;;13.80;57.00;;;;;;4940335;29;20612;-55
2023/04/26 01:05:29;;;;;;;10.27;6.50;;;13.70;56.80;;;;;;4951485;29;20204;-57
2023/04/26 01:07:54;;;;;;;10.20;7.87;;;13.70;56.70;;;;;;4949543;28;20192;-55
2023/04/26 01:10:20;;;;;;;8.90;7.30;;;13.70;56.70;;;;;;4938169;29;20228;-56
2023/04/26 01:12:46;;;;;;;9.33;8.10;;;13.70;56.60;;;;;;4951889;29;20199;-56
2023/04/26 01:15:12;;;;;;;10.50;7.80;;;13.70;56.60;;;;;;4948948;29;20196;-55
2023/04/26 01:17:38;;;;;;;10.33;8.10;;;13.60;56.60;;;;;;4953254;28;21029;-59
2023/04/26 01:20:04;;;;;;;8.93;7.77;;;13.60;57.30;;;;;;4953439;29;20431;-58
2023/04/26 01:22:36;;;;;;;8.13;7.17;;;13.50;57.00;;;;;;4952902;28;20199;-57
2023/04/26 01:25:04;;;;;;;9.50;6.80;;;13.50;57.10;;;;;;4949471;28;20812;-58
2023/04/26 01:27:30;;;;;;;11.67;7.83;;;13.40;57.00;;;;;;4952126;28;20470;-56
2023/04/26 01:29:55;;;;;;;9.27;7.33;;;13.40;57.00;;;;;;4946173;28;20526;-57
2023/04/26 01:32:21;;;;;;;9.10;7.80;;;13.40;57.10;;;;;;4949319;29;20211;-56
2023/04/26 01:34:46;;;;;;;8.93;7.13;;;13.40;57.10;;;;;;4944901;29;20223;-57
2023/04/26 01:37:12;;;;;;;9.20;7.37;;;13.30;57.20;;;;;;4945399;28;20201;-57
2023/04/26 01:39:37;;;;;;;12.00;7.53;;;13.40;57.30;;;;;;4938988;28;20208;-56
2023/04/26 01:42:04;;;;;;;9.47;7.97;;;13.40;57.30;;;;;;4944240;28;20196;-55
2023/04/26 01:44:30;;;;;;;10.13;7.53;;;13.30;57.40;;;;;;4948838;28;20197;-56
2023/04/26 01:46:55;;;;;;;8.53;7.63;;;13.30;57.30;;;;;;4950267;28;20447;-56
2023/04/26 01:49:22;;;;;;;11.07;8.47;;;13.30;57.40;;;;;;4939801;28;20196;-57
2023/04/26 01:51:47;;;;;;;10.73;8.50;;;13.20;58.00;;;;;;4962745;28;20280;-57
2023/04/26 01:54:13;;;;;;;10.13;7.90;;;13.10;57.20;;;;;;4961641;28;20864;-56
2023/04/26 01:56:38;;;;;;;12.50;8.90;;;13.10;57.30;;;;;;4958460;28;20188;-56
2023/04/26 01:59:04;;;;;;;10.83;9.27;;;13.10;57.30;;;;;;4951961;28;20263;-55
2023/04/26 02:01:30;;;;;;;12.30;8.93;;;13.00;57.50;;;;;;4954687;29;20192;-55
2023/04/26 02:03:55;;;;;;;9.70;8.60;;;13.00;57.40;;;;;;4951848;29;20528;-56
2023/04/26 02:06:22;;;;;;;11.57;9.53;;;12.90;57.60;;;;;;4954237;28;20868;-56
2023/04/26 02:08:48;;;;;;;12.00;9.57;;;12.90;57.80;;;;;;4949418;29;20203;-58
2023/04/26 02:11:14;;;;;;;11.87;10.50;;;12.80;58.10;;;;;;4953753;28;20487;-58
2023/04/26 02:13:39;;;;;;;10.67;9.10;;;12.80;58.40;;;;;;4945260;29;20200;-57
2023/04/26 02:16:06;;;;;;;10.80;9.30;;;12.80;58.70;;;;;;4949398;29;20200;-57
2023/04/26 02:18:32;;;;;;;12.60;8.50;;;12.80;58.70;;;;;;4951134;28;20747;-56
2023/04/26 02:20:57;;;;;;;9.17;7.60;;;12.70;58.70;;;;;;4952003;29;20467;-56
2023/04/26 02:23:23;;;;;;;10.60;8.23;;;12.80;58.70;;;;;;4945771;29;20299;-56
2023/04/26 02:25:48;;;;;;;13.10;8.90;;;12.80;58.70;;;;;;4952107;29;20207;-57
2023/04/26 02:28:17;;;;;;;10.50;8.47;;;12.80;58.80;;;;;;4949148;29;20216;-56
2023/04/26 02:30:43;;;;;;;8.77;7.87;;;12.80;58.80;;;;;;4941581;29;20258;-56
2023/04/26 02:33:09;;;;;;;8.50;7.60;;;12.80;58.70;;;;;;4953815;28;20470;-54
2023/04/26 02:35:36;;;;;;;10.30;8.17;;;12.70;58.70;;;;;;4949216;28;20833;-55
2023/04/26 02:38:02;;;;;;;10.30;8.43;;;12.70;58.60;;;;;;4948589;29;20451;-56
2023/04/26 02:40:29;;;;;;;10.00;8.00;;;12.70;58.60;;;;;;4949434;29;20538;-56
2023/04/26 02:42:55;;;;;;;9.70;7.87;;;12.70;58.60;;;;;;4947688;28;20527;-56
2023/04/26 02:45:21;;;;;;;9.57;7.73;;;12.70;58.60;;;;;;4949370;29;20451;-57
2023/04/26 02:47:46;;;;;;;7.70;6.57;;;12.70;58.60;;;;;;4951997;28;20816;-56
2023/04/26 02:50:12;;;;;;;11.07;7.97;;;12.60;58.40;;;;;;4952219;28;21282;-56
2023/04/26 02:52:38;;;;;;;8.17;6.87;;;12.60;58.50;;;;;;4952220;28;20317;-55
2023/04/26 02:55:04;;;;;;;8.37;7.13;;;12.60;58.50;;;;;;4955419;28;20196;-56
2023/04/26 02:57:30;;;;;;;9.90;7.60;;;12.60;58.60;;;;;;4952494;28;20192;-56
2023/04/26 02:59:56;;;;;;;8.40;7.17;;;12.50;58.50;;;;;;4952701;28;20824;-56
2023/04/26 03:02:22;;;;;;;8.03;6.83;;;12.50;58.70;;;;;;4945140;29;21051;-56
2023/04/26 03:04:48;;;;;;;8.80;7.30;;;12.50;58.60;;;;;;4949293;28;20512;-56
2023/04/26 03:07:14;;;;;;;9.63;6.80;;;12.40;58.50;;;;;;4951456;29;20202;-56
2023/04/26 03:09:39;;;;;;;10.53;7.93;;;12.40;58.60;;;;;;4948549;28;20220;-56
2023/04/26 03:12:06;;;;;;;7.70;6.93;;;12.40;59.00;;;;;;4936217;29;20197;-56
2023/04/26 03:14:32;;;;;;;9.00;7.03;;;12.40;59.00;;;;;;4953273;28;20258;-56
2023/04/26 03:17:01;;;;;;;7.80;6.53;;;12.30;58.90;;;;;;4953103;28;20455;-56
2023/04/26 03:19:27;;;;;;;8.47;7.67;;;12.30;59.00;;;;;;4948000;28;20449;-56
2023/04/26 03:21:53;;;;;;;8.00;7.20;;;12.30;59.00;;;;;;4940784;28;20449;-55
2023/04/26 03:24:19;;;;;;;8.93;6.63;;;12.30;58.90;;;;;;4953804;28;20287;-57
2023/04/26 03:26:45;;;;;;;10.03;6.40;;;12.30;58.90;;;;;;4953706;28;20872;-56
2023/04/26 03:29:11;;;;;;;6.67;6.03;;;12.30;58.70;;;;;;4947407;28;20200;-55
2023/04/26 03:31:36;;;;;;;9.70;6.80;;;12.30;58.50;;;;;;4945226;28;20227;-56
2023/04/26 03:34:02;;;;;;;10.20;7.10;;;12.30;58.40;;;;;;4953234;28;20506;-56
2023/04/26 03:36:28;;;;;;;10.00;6.80;;;12.30;58.30;;;;;;4951190;28;20236;-57
2023/04/26 03:38:54;;;;;;;7.10;6.47;;;12.20;58.30;;;;;;4953481;28;20240;-56
2023/04/26 03:41:21;;;;;;;8.37;7.17;;;12.20;58.40;;;;;;4950248;28;20196;-57
2023/04/26 03:43:47;;;;;;;11.00;8.00;;;12.10;58.30;;;;;;4953666;28;20581;-58
2023/04/26 03:46:12;;;;;;;8.67;6.80;;;12.10;58.30;;;;;;4948570;28;20468;-58
2023/04/26 03:48:38;;;;;;;10.23;6.93;;;12.10;58.30;;;;;;4949644;28;20652;-58
2023/04/26 03:51:05;;;;;;;9.77;8.57;;;12.10;58.20;;;;;;4947342;28;20278;-58
2023/04/26 03:53:30;;;;;;;9.10;7.20;;;12.00;58.20;;;;;;4949695;28;20452;-58
2023/04/26 03:55:56;;;;;;;9.00;7.03;;;12.00;57.90;;;;;;4950258;28;20445;-55
2023/04/26 03:58:23;;;;;;;10.00;6.33;;;12.00;58.10;;;;;;4948757;28;20202;-55
2023/04/26 04:00:49;;;;;;;8.37;6.57;;;12.00;58.00;;;;;;4950523;28;20495;-56
2023/04/26 04:03:15;;;;;;;10.70;6.63;;;11.90;57.90;;;;;;4935962;28;20848;-55
2023/04/26 04:05:40;;;;;;;7.90;7.00;;;11.90;57.90;;;;;;4936719;28;20231;-59
2023/04/26 04:08:06;;;;;;;11.80;7.17;;;11.80;57.80;;;;;;4951791;28;20196;-59
2023/04/26 04:10:36;;;;;;;9.07;6.80;;;11.80;57.80;;;;;;4949494;28;20671;-58
2023/04/26 04:13:02;;;;;;;9.67;5.70;;;11.80;57.70;;;;;;4948955;28;20207;-57
2023/04/26 04:15:30;;;;;;;9.57;6.53;;;11.80;57.80;;;;;;4943738;28;20530;-57
2023/04/26 04:17:56;;;;;;;7.90;6.27;;;11.70;57.80;;;;;;4952017;28;20192;-56
2023/04/26 04:20:21;;;;;;;9.70;7.47;;;11.60;57.80;;;;;;4950249;28;20485;-56
2023/04/26 04:22:47;;;;;;;10.60;7.63;;;11.60;57.90;;;;;;4944674;28;20279;-57
2023/04/26 04:25:15;;;;;;;9.00;7.70;;;11.60;57.90;;;;;;4943487;28;20278;-55
2023/04/26 04:27:42;;;;;;;9.13;7.23;;;11.50;57.80;;;;;;4949281;28;20278;-56
2023/04/26 04:30:08;;;;;;;12.70;7.37;;;11.50;57.90;;;;;;4948680;28;20935;-56
2023/04/26 04:32:36;;;;;;;11.97;7.57;;;11.50;57.90;;;;;;4951551;28;20463;-60
2023/04/26 04:35:02;;;;;;;10.87;7.23;;;11.50;57.80;;;;;;4939523;28;20484;-56
2023/04/26 04:37:28;;;;;;;8.70;7.37;;;11.50;57.80;;;;;;4933345;28;20463;-56
2023/04/26 04:39:54;;;;;;;12.40;8.50;;;11.50;57.60;;;;;;4947089;28;20228;-55
2023/04/26 04:42:20;;;;;;;9.07;8.00;;;11.50;57.60;;;;;;4949371;28;20188;-56
2023/04/26 04:44:46;;;;;;;10.27;8.17;;;11.50;57.60;;;;;;4945652;28;20980;-54
2023/04/26 04:47:12;;;;;;;12.00;8.20;;;11.50;57.70;;;;;;4950788;29;20447;-55
2023/04/26 04:49:38;;;;;;;16.03;9.13;;;11.40;57.70;;;;;;4945325;29;20484;-55
2023/04/26 04:52:05;;;;;;;11.87;8.20;;;11.30;57.70;;;;;;4954038;28;20656;-56
2023/04/26 04:54:30;;;;;;;10.13;7.97;;;11.00;58.40;;;;;;4953678;29;20199;-57
2023/04/26 04:56:56;;;;;;;12.87;7.80;;;11.00;58.90;;;;;;4953801;29;20424;-55
2023/04/26 04:59:23;;;;;;;10.20;7.93;;;11.10;58.90;;;;;;4953717;28;20271;-56
2023/04/26 05:01:49;;;;;;;9.90;8.00;;;11.20;58.90;;;;;;4952906;28;20795;-55
2023/04/26 05:04:15;;;;;;;14.63;7.80;;;11.30;58.70;;;;;;4941910;29;20616;-55
2023/04/26 05:06:41;;;;;;;8.43;6.90;;;11.30;58.60;;;;;;4953016;29;20444;-55
2023/04/26 05:09:08;;;;;;;10.67;8.07;;;11.40;58.70;;;;;;4952286;28;20459;-56
2023/04/26 05:11:34;;;;;;;11.13;7.87;;;11.40;58.40;;;;;;4953227;29;20231;-56
2023/04/26 05:13:59;;;;;;;11.07;8.03;;;11.10;59.10;;;;;;4953594;29;20455;-55
2023/04/26 05:16:25;;;;;;;11.93;8.00;;;10.90;60.10;;;;;;4953645;29;20431;-56
2023/04/26 05:18:51;;;;;;;17.47;7.60;;;11.10;60.20;;;;;;4952433;29;20196;-57
2023/04/26 05:21:16;;;;;;;19.73;9.47;;;11.20;60.00;;;;;;4953203;28;20656;-56
2023/04/26 05:23:42;;;;;;;12.47;8.80;;;11.30;60.00;;;;;;4951212;28;20653;-57
2023/04/26 05:26:12;;;;;;;14.70;8.77;;;11.40;59.80;;;;;;4952769;29;20195;-56
2023/04/26 05:28:37;;;;;;;16.27;7.63;;;11.60;59.60;;;;;;4955508;29;20208;-54
2023/04/26 05:31:03;;;;;;;11.70;9.13;;;11.70;60.50;;;;;;4947735;28;20497;-54
2023/04/26 05:33:28;;;;;;;15.60;8.20;;;12.00;61.30;;;;;;4949008;28;20318;-53
2023/04/26 05:35:56;;;;;;;8.80;7.90;;;12.30;59.90;;;;;;4945803;28;20240;-53
2023/04/26 05:38:22;;;;;;;12.07;8.50;;;12.50;60.70;;;;;;4941204;28;20259;-54
2023/04/26 05:40:48;;;;;;;9.07;7.60;;;12.70;60.50;;;;;;4941172;28;20451;-57
2023/04/26 05:43:14;;;;;;;12.37;9.53;;;12.90;59.70;;;;;;4947879;28;20542;-54
2023/04/26 05:45:48;;;;;;;14.00;8.50;;;13.10;59.20;;;;;;4947440;28;20196;-51
2023/04/26 05:48:14;;;;;;;9.30;6.40;;;13.20;58.70;;;;;;4944122;28;20454;-52
2023/04/26 05:50:39;;;;;;;9.83;7.97;;;13.40;58.30;;;;;;4937272;28;20503;-55
2023/04/26 05:53:05;;;;;;;11.73;7.90;;;13.60;58.10;;;;;;4950347;28;20204;-57
2023/04/26 05:55:31;;;;;;;10.93;7.97;;;13.80;57.50;;;;;;4943165;28;20194;-55
2023/04/26 05:57:57;;;;;;;13.20;9.77;;;13.90;56.90;;;;;;4946404;28;20440;-55
2023/04/26 06:00:23;;;;;;;9.17;8.07;;;14.10;56.70;;;;;;4948705;28;20228;-55
2023/04/26 06:02:49;;;;;;;12.90;7.83;;;14.10;56.20;;;;;;4948639;28;20196;-54
2023/04/26 06:05:14;;;;;;;10.27;8.33;;;14.30;55.90;;;;;;4946032;29;20458;-55
2023/04/26 06:07:40;;;;;;;11.70;9.70;;;14.40;55.60;;;;;;4945966;28;20214;-54
2023/04/26 06:10:06;;;;;;;10.87;8.40;;;14.50;55.40;;;;;;4952071;29;20230;-55
2023/04/26 06:12:32;;;;;;;11.73;9.40;;;14.50;55.10;;;;;;4949429;28;20282;-54
2023/04/26 06:14:57;;;;;;;12.10;9.73;;;14.60;55.00;;;;;;4953159;28;20851;-55
2023/04/26 06:17:24;;;;;;;10.80;8.77;;;14.70;54.30;;;;;;4951733;28;20199;-53
2023/04/26 06:19:49;;;;;;;14.63;9.20;;;14.80;54.00;;;;;;4943545;29;20207;-54
2023/04/26 06:22:15;;;;;;;10.87;8.20;;;14.90;53.70;;;;;;4950820;28;20443;-55
2023/04/26 06:24:40;;;;;;;13.10;8.20;;;15.00;53.40;;;;;;4950196;28;20200;-54
2023/04/26 06:27:06;;;;;;;13.77;9.37;;;15.10;53.50;;;;;;4948897;28;20197;-55
2023/04/26 06:29:32;;;;;;;12.13;9.40;;;15.20;53.10;;;;;;4948596;28;20196;-55
2023/04/26 06:31:58;;;;;;;9.27;8.30;;;15.30;53.00;;;;;;4946309;28;20196;-55
2023/04/26 06:34:23;;;;;;;12.63;9.53;;;15.40;52.70;;;;;;4946823;28;20462;-55
2023/04/26 06:36:49;;;;;;;13.13;8.60;;;15.50;52.70;;;;;;4946530;28;20303;-55
2023/04/26 06:39:16;;;;;;;12.80;9.40;;;15.60;52.70;;;;;;4943263;28;20196;-55
2023/04/26 06:41:42;;;;;;;14.70;10.20;;;15.80;52.80;;;;;;4941715;28;20455;-55
2023/04/26 06:44:07;;;;;;;10.97;7.80;;;15.70;51.40;;;;;;4945562;28;20450;-54
2023/04/26 06:46:33;;;;;;;12.63;8.33;;;15.70;51.00;;;;;;4938533;28;20443;-56
2023/04/26 06:49:00;;;;;;;10.93;8.63;;;15.80;51.10;;;;;;4942964;28;20207;-54
2023/04/26 06:51:26;;;;;;;10.97;8.60;;;15.80;51.80;;;;;;4950520;28;20231;-54
2023/04/26 06:53:51;;;;;;;16.80;10.30;;;15.80;51.40;;;;;;4953780;28;20505;-55
2023/04/26 06:56:17;;;;;;;10.00;8.70;;;15.90;51.00;;;;;;4955280;29;20578;-55
2023/04/26 06:58:57;;;;;;;12.97;8.67;;;15.90;50.10;;;;;;4954824;28;20351;-57
2023/04/26 07:01:23;;;;;;;9.80;7.63;;;16.00;49.50;;;;;;4938892;28;20459;-55
2023/04/26 07:03:48;;;;;;;16.83;8.60;;;16.10;48.90;;;;;;4965745;28;20906;-54
2023/04/26 07:06:14;;;;;;;9.03;7.47;;;16.20;49.20;;;;;;4974021;28;20670;-55
2023/04/26 07:08:39;;;;;;;10.60;7.00;;;16.30;49.20;;;;;;4974114;28;20201;-54
2023/04/26 07:11:12;;;;;;;8.80;6.40;;;16.50;48.30;;;;;;4968450;28;20274;-55
2023/04/26 07:13:37;;;;;;;7.33;5.20;;;16.60;47.30;;;;;;4954717;28;20202;-55
2023/04/26 07:16:03;;;;;;;9.70;5.63;;;16.70;46.40;;;;;;4954725;29;20428;-55
2023/04/26 07:18:29;;;;;;;6.40;5.40;;;16.80;45.80;;;;;;4955300;28;20334;-55
2023/04/26 07:20:54;;;;;;;9.33;7.57;;;16.90;45.70;;;;;;4973467;28;20433;-54
2023/04/26 07:23:20;;;;;;;6.87;6.17;;;16.60;43.30;;;;;;4951385;28;20196;-55
2023/04/26 07:25:46;;;;;;;6.37;5.70;;;16.30;44.40;;;;;;4945485;28;20222;-55
2023/04/26 07:28:11;;;;;;;7.27;5.60;;;16.40;45.40;;;;;;4967058;28;20241;-55
2023/04/26 07:30:37;;;;;;;8.90;5.10;;;16.60;45.20;;;;;;4959755;28;20266;-55
2023/04/26 07:33:03;;;;;;;8.33;5.83;;;16.80;44.70;;;;;;4948665;28;20188;-53
2023/04/26 07:35:29;;;;;;;12.90;6.33;;;16.80;44.50;;;;;;4945627;28;20244;-54
2023/04/26 07:37:54;;;;;;;9.73;6.60;;;16.80;44.50;;;;;;4951077;29;20428;-54
2023/04/26 07:40:21;;;;;;;13.17;6.10;;;16.80;44.50;;;;;;4949220;28;20660;-55
2023/04/26 07:42:47;;;;;;;7.90;6.67;;;16.90;45.40;;;;;;4953472;29;20233;-55
2023/04/26 07:45:12;;;;;;;8.93;7.20;;;17.00;45.30;;;;;;4950652;29;20448;-55
2023/04/26 07:47:38;;;;;;;8.17;6.50;;;17.10;44.80;;;;;;4952377;28;20539;-55
2023/04/26 07:50:04;;;;;;;10.93;6.73;;;17.20;44.60;;;;;;4949706;28;20711;-55
2023/04/26 07:52:30;;;;;;;8.07;6.10;;;17.40;44.20;;;;;;4949703;28;20196;-54
2023/04/26 07:54:55;;;;;;;7.83;6.40;;;17.50;43.60;;;;;;4951203;29;20439;-55
2023/04/26 07:57:21;;;;;;;7.97;5.37;;;17.60;43.80;;;;;;4951315;28;20274;-55
2023/04/26 07:59:47;;;;;;;6.23;5.07;;;17.50;42.80;;;;;;4950331;28;20232;-55
2023/04/26 08:02:12;;;;;;;9.70;6.27;;;17.60;43.90;;;;;;4934264;28;20188;-55
2023/04/26 08:04:39;;;;;;;6.20;5.50;;;17.30;43.00;;;;;;4939213;28;20963;-55
2023/04/26 08:07:05;;;;;;;6.80;5.67;;;17.40;41.60;;;;;;4945314;28;20661;-55
2023/04/26 08:09:30;;;;;;;13.87;6.53;;;17.40;42.30;;;;;;4939842;29;20449;-55
2023/04/26 08:11:56;;;;;;;7.10;5.30;;;17.60;42.80;;;;;;4952280;28;20199;-54
2023/04/26 08:14:22;;;;;;;5.43;4.93;;;17.80;42.80;;;;;;4946211;28;20715;-56
2023/04/26 08:16:48;;;;;;;5.83;4.53;;;18.10;43.30;;;;;;4947393;29;20192;-54
2023/04/26 08:19:13;;;;;;;6.20;4.93;;;18.30;42.10;;;;;;4946678;29;20211;-54
2023/04/26 08:21:39;;;;;;;9.97;5.17;;;18.10;41.00;;;;;;4946207;28;20531;-55
2023/04/26 08:24:05;;;;;;;8.93;4.67;;;17.70;42.10;;;;;;4962387;28;20192;-53
2023/04/26 08:26:30;;;;;;;5.60;4.40;;;17.90;42.10;;;;;;4937795;28;22848;-49
2023/04/26 08:28:56;;;;;;;4.97;3.70;;;18.00;40.60;;;;;;4935998;28;20534;-54
2023/04/26 08:31:21;;;;;;;10.20;4.70;;;18.30;39.90;;;;;;4939088;28;20232;-52
2023/04/26 08:33:47;;;;;;;7.70;4.97;;;18.60;38.90;;;;;;4944765;28;20200;-54
2023/04/26 08:36:14;;;;;;;6.27;4.83;;;18.60;39.10;;;;;;4939960;28;20240;-55
2023/04/26 08:38:39;;;;;;;4.83;4.20;;;18.90;40.30;;;;;;4946274;28;20283;-53
2023/04/26 08:41:08;;;;;;;7.37;4.43;;;19.20;38.70;;;;;;4940933;28;20530;-54
2023/04/26 08:43:36;;;;;;;7.60;4.33;;;19.20;38.40;;;;;;4945119;28;20218;-54
2023/04/26 08:46:07;;;;;;;5.03;4.57;;;19.10;37.40;;;;;;4940759;28;20845;-53
2023/04/26 08:48:35;;;;;;;4.53;4.13;;;19.00;37.40;;;;;;4945538;28;20474;-51
2023/04/26 08:51:01;;;;;;;4.60;4.03;;;19.20;37.30;;;;;;4933894;28;21067;-49
2023/04/26 08:53:28;;;;;;;6.47;4.67;;;19.30;36.60;;;;;;4939176;28;21023;-52
2023/04/26 08:55:54;;;;;;;8.90;4.60;;;19.50;36.90;;;;;;4943080;28;20470;-50
2023/04/26 08:58:21;;;;;;;6.63;4.30;;;19.50;38.50;;;;;;4941688;28;20981;-52
2023/04/26 09:00:47;;;;;;;5.57;4.60;;;19.50;39.70;;;;;;4939165;28;20447;-50
2023/04/26 09:03:13;;;;;;;8.17;4.30;;;19.40;39.40;;;;;;4946565;28;20530;-53
2023/04/26 09:05:42;;;;;;;7.67;4.83;;;19.20;40.20;;;;;;4934476;28;20555;-52
2023/04/26 09:08:10;;;;;;;5.90;4.20;;;19.30;40.10;;;;;;4939141;28;21951;-49
2023/04/26 09:10:35;;;;;;;7.03;4.50;;;19.50;39.60;;;;;;4944010;28;20514;-53
2023/04/26 09:13:01;;;;;;;7.23;4.97;;;19.40;38.90;;;;;;4953702;28;20455;-52
2023/04/26 09:15:26;;;;;;;6.57;4.70;;;19.50;38.10;;;;;;4946622;29;20196;-53
2023/04/26 09:17:53;;;;;;;5.87;5.23;;;19.40;37.50;;;;;;4939179;28;20207;-54
2023/04/26 09:20:22;;;;;;;8.17;5.10;;;19.40;37.60;;;;;;4936561;28;20207;-55
2023/04/26 09:22:50;;;;;;;16.90;15.80;;;19.30;37.80;;;;;;4937005;28;21045;-50
2023/04/26 09:25:27;;;;;;;8.33;6.27;;;19.20;38.30;;;;;;4941979;28;20444;-53
2023/04/26 09:27:53;;;;;;;5.97;4.37;;;19.10;37.80;;;;;;4939895;28;20434;-54
2023/04/26 09:30:19;;;;;;;5.10;4.07;;;19.20;38.40;;;;;;4941495;28;20499;-54
2023/04/26 09:32:45;;;;;;;9.00;4.43;;;19.30;39.50;;;;;;4937091;28;20199;-50
2023/04/26 09:35:32;;;;;;;7.17;4.87;;;19.50;38.40;;;;;;4938792;28;22437;-53
2023/04/26 09:38:04;;;;;;;5.30;3.90;;;19.70;36.10;;;;;;4942854;28;20213;-54
2023/04/26 09:40:44;;;;;;;7.80;4.23;;;19.80;36.00;;;;;;4942896;28;20466;-50
2023/04/26 09:43:13;;;;;;;8.03;4.50;;;19.80;35.20;;;;;;4941551;28;20570;-52
2023/04/26 09:45:57;;;;;;;5.93;4.43;;;19.90;35.20;;;;;;4947575;28;20486;-52
2023/04/26 09:48:33;;;;;;;6.47;4.30;;;19.90;34.80;;;;;;4945253;28;20463;-55
2023/04/26 09:51:19;;;;;;;5.70;4.03;;;19.70;35.20;;;;;;4946073;28;20533;-53
2023/04/26 09:53:51;;;;;;;8.60;4.50;;;19.80;36.40;;;;;;4936184;28;20457;-54
2023/04/26 09:56:18;;;;;;;5.43;4.53;;;19.90;37.00;;;;;;4940228;28;20451;-52
2023/04/26 09:58:50;;;;;;;6.50;4.50;;;20.00;36.60;;;;;;4942381;28;20819;-50
2023/04/26 10:01:18;;;;;;;4.40;4.07;;;19.80;35.30;;;;;;4945163;28;20452;-50
2023/04/26 10:03:45;;;;;;;4.40;3.87;;;19.70;35.10;;;;;;4942448;29;20487;-51
2023/04/26 10:06:14;;;;;;;5.53;3.73;;;19.70;34.60;;;;;;4942245;28;20474;-53
2023/04/26 10:08:40;;;;;;;3.43;3.13;;;19.70;33.10;;;;;;4943496;28;20467;-52
2023/04/26 10:11:06;;;;;;;4.57;4.10;;;19.70;33.80;;;;;;4947088;28;20983;-50
2023/04/26 10:13:32;;;;;;;7.27;4.10;;;19.70;34.40;;;;;;4946814;29;20631;-50
2023/04/26 10:16:00;;;;;;;4.60;3.40;;;19.70;34.50;;;;;;4945162;28;20456;-50
2023/04/26 10:18:26;;;;;;;6.97;4.30;;;19.70;33.60;;;;;;4951359;28;20893;-50
2023/04/26 10:20:57;;;;;;;10.60;4.00;;;19.70;33.30;;;;;;4942287;28;20447;-51
2023/04/26 10:23:26;;;;;;;5.37;4.20;;;19.70;33.60;;;;;;4946139;28;20204;-51
2023/04/26 10:25:53;;;;;;;8.53;3.57;;;19.50;34.40;;;;;;4948218;28;20466;-49
2023/04/26 10:28:44;;;;;;;3.77;3.20;;;19.50;33.80;;;;;;4942430;29;20457;-52
2023/04/26 10:31:10;;;;;;;8.80;4.60;;;19.30;34.90;;;;;;4945079;29;20991;-52
2023/04/26 10:33:36;;;;;;;7.10;4.00;;;19.30;34.30;;;;;;4951956;28;20461;-51
2023/04/26 10:36:11;;;;;;;6.97;4.63;;;18.90;33.40;;;;;;4946475;29;20236;-52
2023/04/26 10:38:38;;;;;;;4.63;4.07;;;18.90;35.10;;;;;;4951098;29;20192;-52
2023/04/26 10:41:30;;;;;;;6.07;3.63;;;19.30;37.30;;;;;;4944072;29;20458;-51
2023/04/26 10:43:56;;;;;;;5.37;3.67;;;19.50;36.40;;;;;;4940284;28;20487;-53
2023/04/26 10:46:41;;;;;;;8.90;4.20;;;19.90;36.10;;;;;;4949126;28;20558;-56
2023/04/26 10:49:18;;;;;;;6.10;4.23;;;20.10;34.40;;;;;;4944530;28;20455;-57
2023/04/26 10:52:10;;;;;;;5.33;3.40;;;20.20;33.60;;;;;;4947523;28;20495;-56
2023/04/26 10:54:49;;;;;;;10.13;3.80;;;20.50;35.00;;;;;;4944385;29;20967;-52
2023/04/26 10:57:14;;;;;;;5.47;3.40;;;20.50;34.80;;;;;;4945575;29;20472;-51
2023/04/26 11:00:09;;;;;;;6.83;3.50;;;20.80;34.30;;;;;;4939704;28;20476;-55
2023/04/26 11:03:05;;;;;;;4.13;3.33;;;21.10;32.50;;;;;;4938720;29;20216;-53
2023/04/26 11:05:54;;;;;;;6.13;3.37;;;21.40;33.30;;;;;;4923419;29;20460;-52
2023/04/26 11:08:27;;;;;;;6.23;4.03;;;21.50;31.90;;;;;;4942705;29;20458;-54
2023/04/26 11:10:58;;;;;;;5.80;4.27;;;21.40;30.60;;;;;;4946801;28;20495;-54
2023/04/26 11:13:24;;;;;;;4.70;3.67;;;21.40;31.20;;;;;;4944487;29;20537;-53
2023/04/26 11:15:58;;;;;;;4.27;3.53;;;21.40;30.00;;;;;;4949620;28;20448;-52
2023/04/26 11:18:24;;;;;;;9.53;4.67;;;21.50;32.20;;;;;;4944949;28;20286;-51
2023/04/26 11:20:49;;;;;;;4.00;3.50;;;21.50;32.90;;;;;;4950174;28;20442;-53
2023/04/26 11:23:18;;;;;;;4.83;3.83;;;21.40;31.40;;;;;;4942435;29;20196;-53
2023/04/26 11:25:43;;;;;;;5.30;3.30;;;21.40;30.90;;;;;;4949716;29;20730;-54
2023/04/26 11:28:09;;;;;;;4.93;4.10;;;21.30;32.10;;;;;;4951017;29;20510;-55
2023/04/26 11:30:34;;;;;;;6.00;4.00;;;21.20;31.70;;;;;;4939574;28;20259;-53
2023/04/26 11:33:02;;;;;;;5.20;4.10;;;21.20;32.40;;;;;;4943164;28;20224;-53
2023/04/26 11:35:29;;;;;;;6.00;4.53;;;21.20;32.40;;;;;;4942917;29;20234;-55
2023/04/26 11:37:59;;;;;;;5.37;3.40;;;21.20;31.30;;;;;;4948435;29;20452;-50
2023/04/26 11:40:31;;;;;;;6.03;3.93;;;21.40;31.20;;;;;;4947841;28;20439;-50
2023/04/26 11:43:04;;;;;;;3.87;3.57;;;21.50;31.00;;;;;;4949340;28;20447;-49
2023/04/26 11:45:35;;;;;;;5.50;3.70;;;21.50;31.40;;;;;;4949592;28;20479;-50
2023/04/26 11:48:02;;;;;;;4.77;3.87;;;21.30;31.80;;;;;;4943747;28;20448;-53
2023/04/26 11:50:30;;;;;;;9.40;4.30;;;21.20;31.70;;;;;;4949885;28;20502;-52
2023/04/26 11:52:58;;;;;;;5.63;4.50;;;20.70;30.50;;;;;;4954973;28;20568;-51
2023/04/26 11:55:27;;;;;;;4.87;3.60;;;20.60;32.90;;;;;;4937588;28;20452;-51
2023/04/26 11:57:53;;;;;;;5.13;4.00;;;20.90;32.30;;;;;;4940241;28;20532;-50
2023/04/26 12:00:20;;;;;;;5.43;3.93;;;21.10;32.00;;;;;;4946288;28;20530;-51
2023/04/26 12:02:48;;;;;;;4.37;3.97;;;21.20;32.20;;;;;;4946445;28;20199;-54
2023/04/26 12:05:29;;;;;;;4.30;3.43;;;21.30;31.60;;;;;;4961318;28;20420;-50
2023/04/26 12:07:58;;;;;;;6.27;4.30;;;21.30;32.10;;;;;;4945989;28;20777;-51
2023/04/26 12:10:31;;;;;;;5.33;4.10;;;21.30;31.80;;;;;;4939671;28;20523;-51
2023/04/26 12:12:58;;;;;;;6.03;4.13;;;21.40;30.90;;;;;;4942468;28;20443;-52
2023/04/26 12:15:32;;;;;;;4.90;3.73;;;21.30;31.00;;;;;;4954802;28;20436;-51
2023/04/26 12:18:08;;;;;;;5.53;3.63;;;21.50;31.40;;;;;;4945109;28;20459;-53
2023/04/26 12:20:39;;;;;;;4.90;4.40;;;21.60;32.80;;;;;;4945368;28;20458;-50
2023/04/26 12:23:11;;;;;;;5.27;4.17;;;21.60;32.80;;;;;;4940115;28;20448;-53
2023/04/26 12:25:39;;;;;;;6.60;4.00;;;21.80;31.70;;;;;;4941255;28;20454;-51
2023/04/26 12:28:13;;;;;;;3.97;3.43;;;21.90;31.60;;;;;;4940305;28;20452;-49
2023/04/26 12:30:39;;;;;;;5.70;3.80;;;22.00;32.50;;;;;;4946147;28;20489;-51
2023/04/26 12:33:05;;;;;;;5.03;4.50;;;22.20;31.30;;;;;;4959067;28;20441;-49
2023/04/26 12:35:31;;;;;;;4.70;3.60;;;22.40;29.80;;;;;;4945025;28;20475;-50
2023/04/26 12:37:59;;;;;;;4.60;3.50;;;22.50;30.10;;;;;;4948382;28;20250;-50
2023/04/26 12:40:29;;;;;;;4.17;3.77;;;22.80;31.00;;;;;;4950685;28;20813;-54
2023/04/26 12:42:56;;;;;;;6.17;3.60;;;23.00;30.10;;;;;;4942981;29;20820;-49
2023/04/26 12:45:25;;;;;;;8.93;4.30;;;23.30;29.20;;;;;;4945974;28;20443;-49